sensor_id;sensor_type;location;lat;lon;timestamp;pressure;altitude;pressure_sealevel;temperature;humidity
55759;BME280;41678;52.126;20.664;2023-02-18T00:02:26;99324.78;;;6.70;94.29
55759;BME280;41678;52.126;20.664;2023-02-18T00:07:45;99328.38;;;6.59;93.04
55759;BME280;41678;52.126;20.664;2023-02-18T00:13:04;99331.91;;;6.55;93.40
55759;BME280;41678;52.126;20.664;2023-02-18T00:18:24;99325.00;;;6.48;92.39
55759;BME280;41678;52.126;20.664;2023-02-18T00:23:43;99339.03;;;6.41;91.54
55759;BME280;41678;52.126;20.664;2023-02-18T00:29:03;99333.81;;;6.41;92.16
55759;BME280;41678;52.126;20.664;2023-02-18T00:34:23;99326.84;;;6.36;91.74
55759;BME280;41678;52.126;20.664;2023-02-18T00:39:43;99350.44;;;6.32;90.84
55759;BME280;41678;52.126;20.664;2023-02-18T00:45:03;99347.03;;;6.23;92.13
55759;BME280;41678;52.126;20.664;2023-02-18T00:50:24;99350.47;;;6.26;92.31
55759;BME280;41678;52.126;20.664;2023-02-18T00:55:44;99351.38;;;6.24;89.60
55759;BME280;41678;52.126;20.664;2023-02-18T01:01:06;99347.94;;;6.18;90.29
55759;BME280;41678;52.126;20.664;2023-02-18T01:06:26;99355.81;;;6.15;89.74
55759;BME280;41678;52.126;20.664;2023-02-18T01:11:46;99361.91;;;6.14;89.51
55759;BME280;41678;52.126;20.664;2023-02-18T01:17:05;99359.31;;;6.14;90.31
55759;BME280;41678;52.126;20.664;2023-02-18T01:22:25;99350.63;;;6.12;90.07
55759;BME280;41678;52.126;20.664;2023-02-18T01:27:45;99337.56;;;6.12;90.31
55759;BME280;41678;52.126;20.664;2023-02-18T01:33:04;99330.63;;;6.07;89.77
55759;BME280;41678;52.126;20.664;2023-02-18T01:38:24;99329.75;;;6.05;88.99
55759;BME280;41678;52.126;20.664;2023-02-18T01:43:44;99331.47;;;6.06;88.74
55759;BME280;41678;52.126;20.664;2023-02-18T01:49:04;99319.31;;;6.01;88.89
55759;BME280;41678;52.126;20.664;2023-02-18T01:54:35;99341.09;;;6.01;88.51
55759;BME280;41678;52.126;20.664;2023-02-18T02:00:04;99329.78;;;6.02;89.13
55759;BME280;41678;52.126;20.664;2023-02-18T02:05:34;99345.41;;;6.05;87.36
55759;BME280;41678;52.126;20.664;2023-02-18T02:11:03;99335.00;;;6.01;88.49
55759;BME280;41678;52.126;20.664;2023-02-18T02:51:18;99365.63;;;5.75;86.93
55759;BME280;41678;52.126;20.664;2023-02-18T02:56:42;99381.38;;;5.66;87.55
55759;BME280;41678;52.126;20.664;2023-02-18T03:08:13;99385.72;;;5.67;87.34
55759;BME280;41678;52.126;20.664;2023-02-18T03:19:14;99386.66;;;5.58;87.01
55759;BME280;41678;52.126;20.664;2023-02-18T03:24:43;99394.50;;;5.53;87.33
55759;BME280;41678;52.126;20.664;2023-02-18T03:30:16;99399.78;;;5.47;86.88
55759;BME280;41678;52.126;20.664;2023-02-18T03:35:40;99398.91;;;5.42;87.05
55759;BME280;41678;52.126;20.664;2023-02-18T03:41:02;99382.44;;;5.32;86.74
55759;BME280;41678;52.126;20.664;2023-02-18T03:46:26;99397.22;;;5.30;86.64
55759;BME280;41678;52.126;20.664;2023-02-18T03:51:47;99420.72;;;5.25;86.60
55759;BME280;41678;52.126;20.664;2023-02-18T03:57:07;99410.31;;;5.22;86.31
55759;BME280;41678;52.126;20.664;2023-02-18T04:02:26;99411.22;;;5.18;86.27
55759;BME280;41678;52.126;20.664;2023-02-18T04:07:46;99420.78;;;5.12;86.10
55759;BME280;41678;52.126;20.664;2023-02-18T04:13:05;99411.22;;;5.09;86.79
55759;BME280;41678;52.126;20.664;2023-02-18T04:18:25;99409.47;;;5.06;85.42
55759;BME280;41678;52.126;20.664;2023-02-18T04:23:44;99433.00;;;5.02;86.15
55759;BME280;41678;52.126;20.664;2023-02-18T04:29:04;99417.34;;;4.99;86.37
55759;BME280;41678;52.126;20.664;2023-02-18T04:34:24;99416.47;;;4.96;85.79
55759;BME280;41678;52.126;20.664;2023-02-18T04:39:44;99430.41;;;4.92;85.39
55759;BME280;41678;52.126;20.664;2023-02-18T04:45:04;99424.31;;;4.90;85.31
55759;BME280;41678;52.126;20.664;2023-02-18T04:50:24;99407.81;;;4.85;84.93
55759;BME280;41678;52.126;20.664;2023-02-18T04:55:48;99430.44;;;4.86;85.86
55759;BME280;41678;52.126;20.664;2023-02-18T05:01:07;99433.00;;;4.88;85.73
55759;BME280;41678;52.126;20.664;2023-02-18T05:06:27;99430.44;;;4.81;85.86
55759;BME280;41678;52.126;20.664;2023-02-18T05:11:46;99423.47;;;4.79;85.40
55759;BME280;41678;52.126;20.664;2023-02-18T05:17:06;99416.50;;;4.76;85.05
55759;BME280;41678;52.126;20.664;2023-02-18T05:22:25;99424.34;;;4.75;84.90
55759;BME280;41678;52.126;20.664;2023-02-18T05:27:45;99456.53;;;4.74;85.39
55759;BME280;41678;52.126;20.664;2023-02-18T05:33:04;99443.47;;;4.75;85.15
55759;BME280;41678;52.126;20.664;2023-02-18T05:38:24;99451.31;;;4.72;85.37
55759;BME280;41678;52.126;20.664;2023-02-18T05:43:43;99447.84;;;4.72;85.10
55759;BME280;41678;52.126;20.664;2023-02-18T05:49:22;99454.78;;;4.76;85.28
55759;BME280;41678;52.126;20.664;2023-02-18T05:54:42;99453.03;;;4.65;85.51
55759;BME280;41678;52.126;20.664;2023-02-18T06:00:04;99458.25;;;4.68;85.34
55759;BME280;41678;52.126;20.664;2023-02-18T06:05:24;99473.91;;;4.68;85.51
55759;BME280;41678;52.126;20.664;2023-02-18T06:10:45;99483.47;;;4.68;85.50
55759;BME280;41678;52.126;20.664;2023-02-18T06:16:05;99491.31;;;4.73;84.91
55759;BME280;41678;52.126;20.664;2023-02-18T06:21:25;99486.97;;;4.72;85.62
55759;BME280;41678;52.126;20.664;2023-02-18T06:26:44;99502.59;;;4.75;85.82
55759;BME280;41678;52.126;20.664;2023-02-18T06:32:04;99502.59;;;4.73;85.82
55759;BME280;41678;52.126;20.664;2023-02-18T06:37:24;99508.69;;;4.77;85.50
55759;BME280;41678;52.126;20.664;2023-02-18T06:42:43;99529.53;;;4.80;85.29
55759;BME280;41678;52.126;20.664;2023-02-18T06:48:03;99525.19;;;4.80;85.60
55759;BME280;41678;52.126;20.664;2023-02-18T06:53:22;99528.66;;;4.86;84.86
55759;BME280;41678;52.126;20.664;2023-02-18T06:58:42;99526.06;;;4.86;85.56
55759;BME280;41678;52.126;20.664;2023-02-18T07:04:02;99534.78;;;4.86;85.43
55759;BME280;41678;52.126;20.664;2023-02-18T07:09:22;99556.50;;;4.88;84.82
55759;BME280;41678;52.126;20.664;2023-02-18T07:14:41;99562.59;;;4.90;84.90
55759;BME280;41678;52.126;20.664;2023-02-18T07:20:01;99583.47;;;4.87;84.77
55759;BME280;41678;52.126;20.664;2023-02-18T07:25:22;99581.72;;;4.92;85.11
55759;BME280;41678;52.126;20.664;2023-02-18T07:30:42;99585.19;;;4.96;84.53
55759;BME280;41678;52.126;20.664;2023-02-18T07:36:02;99573.88;;;4.95;85.17
55759;BME280;41678;52.126;20.664;2023-02-18T07:41:22;99569.53;;;4.94;84.20
55759;BME280;41678;52.126;20.664;2023-02-18T07:46:42;99578.22;;;5.00;84.18
55759;BME280;41678;52.126;20.664;2023-02-18T07:52:02;99566.06;;;5.00;84.30
55759;BME280;41678;52.126;20.664;2023-02-18T07:57:22;99573.88;;;5.03;84.29
55759;BME280;41678;52.126;20.664;2023-02-18T08:02:42;99576.50;;;5.08;83.56
55759;BME280;41678;52.126;20.664;2023-02-18T08:08:01;99582.56;;;5.10;83.54
55759;BME280;41678;52.126;20.664;2023-02-18T08:13:21;99573.88;;;5.19;84.15
55759;BME280;41678;52.126;20.664;2023-02-18T08:24:49;99576.47;;;5.20;84.27
55759;BME280;41678;52.126;20.664;2023-02-18T08:30:10;99593.88;;;5.28;84.04
55759;BME280;41678;52.126;20.664;2023-02-18T08:35:29;99582.56;;;5.27;83.31
55759;BME280;41678;52.126;20.664;2023-02-18T08:40:50;99579.06;;;5.27;83.68
55759;BME280;41678;52.126;20.664;2023-02-18T08:46:10;99585.19;;;5.32;83.82
55759;BME280;41678;52.126;20.664;2023-02-18T08:51:30;99590.38;;;5.29;83.71
55759;BME280;41678;52.126;20.664;2023-02-18T08:56:53;99593.88;;;5.31;83.11
55759;BME280;41678;52.126;20.664;2023-02-18T09:02:14;99588.66;;;5.37;83.64
55759;BME280;41678;52.126;20.664;2023-02-18T09:07:35;99573.84;;;5.39;83.00
55759;BME280;41678;52.126;20.664;2023-02-18T09:13:29;99578.16;;;5.48;82.56
55759;BME280;41678;52.126;20.664;2023-02-18T09:18:48;99590.38;;;5.47;82.58
55759;BME280;41678;52.126;20.664;2023-02-18T09:30:46;99603.38;;;5.60;82.66
55759;BME280;41678;52.126;20.664;2023-02-18T09:36:07;99603.38;;;5.60;82.92
55759;BME280;41678;52.126;20.664;2023-02-18T09:52:43;99619.91;;;5.66;82.72
55759;BME280;41678;52.126;20.664;2023-02-18T09:58:15;99612.06;;;5.66;82.28
55759;BME280;41678;52.126;20.664;2023-02-18T10:03:37;99637.31;;;5.69;81.83
55759;BME280;41678;52.126;20.664;2023-02-18T10:09:01;99634.72;;;5.71;82.37
55759;BME280;41678;52.126;20.664;2023-02-18T10:14:23;99646.03;;;5.71;82.03
55759;BME280;41678;52.126;20.664;2023-02-18T10:19:44;99649.50;;;5.73;82.20
55759;BME280;41678;52.126;20.664;2023-02-18T10:25:06;99631.22;;;5.76;82.40
55759;BME280;41678;52.126;20.664;2023-02-18T10:30:37;99634.69;;;5.80;83.02
55759;BME280;41678;52.126;20.664;2023-02-18T10:41:53;99632.06;;;5.80;81.99
55759;BME280;41678;52.126;20.664;2023-02-18T10:52:49;99626.00;;;5.78;81.59
55759;BME280;41678;52.126;20.664;2023-02-18T11:04:19;99619.88;;;5.85;81.60
55759;BME280;41678;52.126;20.664;2023-02-18T11:09:41;99624.22;;;5.85;82.02
55759;BME280;41678;52.126;20.664;2023-02-18T11:20:37;99599.84;;;5.92;81.64
55759;BME280;41678;52.126;20.664;2023-02-18T11:26:11;99600.69;;;5.91;81.36
55759;BME280;41678;52.126;20.664;2023-02-18T11:31:41;99594.59;;;5.90;81.29
55759;BME280;41678;52.126;20.664;2023-02-18T11:37:10;99587.59;;;5.95;81.18
55759;BME280;41678;52.126;20.664;2023-02-18T11:42:31;99579.78;;;5.97;81.15
55759;BME280;41678;52.126;20.664;2023-02-18T11:47:58;99579.78;;;5.94;80.88
55759;BME280;41678;52.126;20.664;2023-02-18T11:53:28;99572.84;;;5.93;80.11
55759;BME280;41678;52.126;20.664;2023-02-18T11:58:49;99567.59;;;5.96;80.58
55759;BME280;41678;52.126;20.664;2023-02-18T12:04:12;99561.50;;;6.02;81.22
55759;BME280;41678;52.126;20.664;2023-02-18T12:09:40;99551.88;;;6.05;80.76
55759;BME280;41678;52.126;20.664;2023-02-18T12:15:01;99539.69;;;6.04;80.88
55759;BME280;41678;52.126;20.664;2023-02-18T12:20:59;99551.00;;;6.08;80.71
55759;BME280;41678;52.126;20.664;2023-02-18T12:48:56;99517.00;;;6.13;81.03
55759;BME280;41678;52.126;20.664;2023-02-18T13:05:59;99515.25;;;6.15;81.29
55759;BME280;41678;52.126;20.664;2023-02-18T13:11:44;99507.44;;;6.12;81.03
55759;BME280;41678;52.126;20.664;2023-02-18T13:17:08;99488.25;;;6.11;80.99
55759;BME280;41678;52.126;20.664;2023-02-18T13:22:30;99487.38;;;6.12;81.12
55759;BME280;41678;52.126;20.664;2023-02-18T13:28:10;99487.41;;;6.11;81.35
55759;BME280;41678;52.126;20.664;2023-02-18T13:33:42;99503.94;;;6.13;80.28
55759;BME280;41678;52.126;20.664;2023-02-18T13:39:08;99497.84;;;6.14;80.41
55759;BME280;41678;52.126;20.664;2023-02-18T13:49:51;99496.97;;;6.10;81.37
55759;BME280;41678;52.126;20.664;2023-02-18T13:55:53;99483.91;;;6.12;81.56
55759;BME280;41678;52.126;20.664;2023-02-18T14:01:20;99476.94;;;6.11;80.95
55759;BME280;41678;52.126;20.664;2023-02-18T14:25:21;99453.38;;;6.17;82.31
55759;BME280;41678;52.126;20.664;2023-02-18T14:30:45;99439.44;;;6.15;82.03
55759;BME280;41678;52.126;20.664;2023-02-18T14:53:23;99448.25;;;6.00;80.52
55759;BME280;41678;52.126;20.664;2023-02-18T14:58:47;99448.28;;;5.92;80.66
55759;BME280;41678;52.126;20.664;2023-02-18T15:04:14;99440.44;;;5.92;80.62
55759;BME280;41678;52.126;20.664;2023-02-18T15:09:33;99442.19;;;5.87;81.29
55759;BME280;41678;52.126;20.664;2023-02-18T15:14:57;99436.97;;;5.91;81.29
55759;BME280;41678;52.126;20.664;2023-02-18T15:20:22;99437.84;;;5.89;81.93
55759;BME280;41678;52.126;20.664;2023-02-18T15:25:49;99435.25;;;5.87;82.39
55759;BME280;41678;52.126;20.664;2023-02-18T15:31:10;99424.84;;;5.79;82.10
55759;BME280;41678;52.126;20.664;2023-02-18T15:36:31;99423.97;;;5.80;82.59
55759;BME280;41678;52.126;20.664;2023-02-18T15:42:22;99423.97;;;5.79;83.12
55759;BME280;41678;52.126;20.664;2023-02-18T15:47:46;99428.34;;;5.72;83.11
55759;BME280;41678;52.126;20.664;2023-02-18T15:53:08;99434.44;;;5.76;83.37
55759;BME280;41678;52.126;20.664;2023-02-18T15:58:29;99437.09;;;5.68;83.52
55759;BME280;41678;52.126;20.664;2023-02-18T16:03:49;99440.63;;;5.58;83.66
55759;BME280;41678;52.126;20.664;2023-02-18T16:09:15;99435.44;;;5.48;84.35
55759;BME280;41678;52.126;20.664;2023-02-18T16:14:48;99443.25;;;5.51;84.47
55759;BME280;41678;52.126;20.664;2023-02-18T16:20:24;99445.91;;;5.42;84.92
55759;BME280;41678;52.126;20.664;2023-02-18T16:25:47;99440.66;;;5.45;85.37
55759;BME280;41678;52.126;20.664;2023-02-18T16:31:07;99435.50;;;5.36;85.51
55759;BME280;41678;52.126;20.664;2023-02-18T16:36:26;99441.59;;;5.35;86.38
55759;BME280;41678;52.126;20.664;2023-02-18T16:41:46;99445.09;;;5.23;86.28
55759;BME280;41678;52.126;20.664;2023-02-18T16:47:06;99436.44;;;5.12;86.70
55759;BME280;41678;52.126;20.664;2023-02-18T16:52:27;99432.09;;;5.14;87.03
55759;BME280;41678;52.126;20.664;2023-02-18T16:57:47;99434.72;;;5.10;87.61
55759;BME280;41678;52.126;20.664;2023-02-18T17:03:09;99430.38;;;4.95;88.44
55759;BME280;41678;52.126;20.664;2023-02-18T17:08:29;99425.16;;;4.99;88.67
55759;BME280;41678;52.126;20.664;2023-02-18T17:13:49;99416.50;;;4.84;88.21
55759;BME280;41678;52.126;20.664;2023-02-18T17:19:09;99435.63;;;4.85;88.63
55759;BME280;41678;52.126;20.664;2023-02-18T17:24:28;99449.56;;;4.74;88.50
55759;BME280;41678;52.126;20.664;2023-02-18T17:29:47;99430.47;;;4.61;88.60
55759;BME280;41678;52.126;20.664;2023-02-18T17:35:08;99438.28;;;4.57;88.88
55759;BME280;41678;52.126;20.664;2023-02-18T17:40:28;99437.41;;;4.44;88.51
55759;BME280;41678;52.126;20.664;2023-02-18T17:45:50;99430.47;;;4.36;88.51
55759;BME280;41678;52.126;20.664;2023-02-18T17:51:24;99423.53;;;4.29;89.22
55759;BME280;41678;52.126;20.664;2023-02-18T17:56:45;99433.94;;;4.26;89.08
55759;BME280;41678;52.126;20.664;2023-02-18T18:02:23;99420.03;;;4.15;89.04
55759;BME280;41678;52.126;20.664;2023-02-18T18:07:43;99409.59;;;4.08;89.18
55759;BME280;41678;52.126;20.664;2023-02-18T18:13:06;99425.25;;;4.10;89.55
55759;BME280;41678;52.126;20.664;2023-02-18T18:18:25;99417.41;;;4.05;89.44
55759;BME280;41678;52.126;20.664;2023-02-18T18:23:46;99414.81;;;4.05;89.41
55759;BME280;41678;52.126;20.664;2023-02-18T18:29:05;99407.00;;;3.96;89.40
55759;BME280;41678;52.126;20.664;2023-02-18T18:34:24;99425.19;;;3.93;89.77
55759;BME280;41678;52.126;20.664;2023-02-18T18:39:44;99431.31;;;3.93;89.91
55759;BME280;41678;52.126;20.664;2023-02-18T18:45:04;99446.03;;;3.90;89.59
55759;BME280;41678;52.126;20.664;2023-02-18T18:50:24;99445.19;;;3.97;90.12
55759;BME280;41678;52.126;20.664;2023-02-18T18:55:45;99433.88;;;3.89;90.11
55759;BME280;41678;52.126;20.664;2023-02-18T19:01:17;99428.69;;;3.86;90.18
55759;BME280;41678;52.126;20.664;2023-02-18T19:06:37;99455.56;;;3.86;90.71
55759;BME280;41678;52.126;20.664;2023-02-18T19:11:56;99442.53;;;3.66;91.06
55759;BME280;41678;52.126;20.664;2023-02-18T19:17:16;99450.34;;;3.74;91.11
55759;BME280;41678;52.126;20.664;2023-02-18T19:22:35;99478.97;;;3.69;91.13
55759;BME280;41678;52.126;20.664;2023-02-18T19:27:55;99485.91;;;3.70;91.24
55759;BME280;41678;52.126;20.664;2023-02-18T19:33:15;99474.59;;;3.60;91.72
55759;BME280;41678;52.126;20.664;2023-02-18T19:38:35;99476.34;;;3.63;91.69
55759;BME280;41678;52.126;20.664;2023-02-18T19:43:55;99478.94;;;3.60;92.00
55759;BME280;41678;52.126;20.664;2023-02-18T19:49:15;99492.81;;;3.56;92.11
55759;BME280;41678;52.126;20.664;2023-02-18T19:54:35;99496.28;;;3.54;91.94
55759;BME280;41678;52.126;20.664;2023-02-18T19:59:54;99493.59;;;3.42;92.14
55759;BME280;41678;52.126;20.664;2023-02-18T20:05:14;99499.69;;;3.44;92.34
55759;BME280;41678;52.126;20.664;2023-02-18T20:10:34;99502.25;;;3.36;92.46
55759;BME280;41678;52.126;20.664;2023-02-18T20:15:54;99513.47;;;3.28;92.29
55759;BME280;41678;52.126;20.664;2023-02-18T20:21:13;99517.84;;;3.33;92.17
55759;BME280;41678;52.126;20.664;2023-02-18T20:26:33;99543.88;;;3.30;92.26
55759;BME280;41678;52.126;20.664;2023-02-18T20:31:53;99552.53;;;3.29;92.78
55759;BME280;41678;52.126;20.664;2023-02-18T20:37:13;99562.91;;;3.26;92.64
55759;BME280;41678;52.126;20.664;2023-02-18T20:42:32;99577.63;;;3.22;93.65
55759;BME280;41678;52.126;20.664;2023-02-18T20:47:52;99573.31;;;3.21;93.56
55759;BME280;41678;52.126;20.664;2023-02-18T20:53:11;99588.03;;;3.24;93.42
55759;BME280;41678;52.126;20.664;2023-02-18T20:58:31;99586.38;;;3.29;93.24
55759;BME280;41678;52.126;20.664;2023-02-18T21:03:51;99600.19;;;3.25;93.67
55759;BME280;41678;52.126;20.664;2023-02-18T21:09:12;99613.25;;;3.28;94.05
55759;BME280;41678;52.126;20.664;2023-02-18T21:14:32;99619.25;;;3.22;93.96
55759;BME280;41678;52.126;20.664;2023-02-18T21:19:52;99621.00;;;3.23;94.22
55759;BME280;41678;52.126;20.664;2023-02-18T21:25:11;99621.88;;;3.22;94.19
55759;BME280;41678;52.126;20.664;2023-02-18T21:30:37;99645.25;;;3.19;94.13
55759;BME280;41678;52.126;20.664;2023-02-18T21:35:59;99649.59;;;3.20;94.48
55759;BME280;41678;52.126;20.664;2023-02-18T21:41:19;99659.09;;;3.15;94.08
55759;BME280;41678;52.126;20.664;2023-02-18T21:46:39;99688.63;;;3.20;94.44
55759;BME280;41678;52.126;20.664;2023-02-18T21:51:59;99686.88;;;3.18;94.28
55759;BME280;41678;52.126;20.664;2023-02-18T21:57:26;99686.00;;;3.19;93.64
55759;BME280;41678;52.126;20.664;2023-02-18T22:02:46;99706.78;;;3.13;93.42
55759;BME280;41678;52.126;20.664;2023-02-18T22:08:06;99699.81;;;3.11;93.93
55759;BME280;41678;52.126;20.664;2023-02-18T22:13:26;99709.31;;;3.05;94.46
55759;BME280;41678;52.126;20.664;2023-02-18T22:18:46;99715.31;;;2.99;93.79
55759;BME280;41678;52.126;20.664;2023-02-18T22:24:06;99710.88;;;2.92;93.76
55759;BME280;41678;52.126;20.664;2023-02-18T22:29:27;99735.19;;;2.95;93.94
55759;BME280;41678;52.126;20.664;2023-02-18T22:34:48;99728.22;;;2.88;93.79
55759;BME280;41678;52.126;20.664;2023-02-18T22:40:08;99736.78;;;2.81;94.36
55759;BME280;41678;52.126;20.664;2023-02-18T22:45:27;99734.97;;;2.74;93.80
55759;BME280;41678;52.126;20.664;2023-02-18T22:50:47;99749.56;;;2.64;93.95
55759;BME280;41678;52.126;20.664;2023-02-18T22:56:09;99750.44;;;2.64;93.68
55759;BME280;41678;52.126;20.664;2023-02-18T23:01:33;99750.28;;;2.52;93.70
55759;BME280;41678;52.126;20.664;2023-02-18T23:06:53;99768.56;;;2.57;93.57
55759;BME280;41678;52.126;20.664;2023-02-18T23:12:12;99765.81;;;2.46;93.88
55759;BME280;41678;52.126;20.664;2023-02-18T23:17:31;99773.63;;;2.46;94.04
55759;BME280;41678;52.126;20.664;2023-02-18T23:22:51;99783.13;;;2.44;94.05
55759;BME280;41678;52.126;20.664;2023-02-18T23:28:10;99784.91;;;2.49;93.88
55759;BME280;41678;52.126;20.664;2023-02-18T23:33:30;99805.69;;;2.48;94.03
55759;BME280;41678;52.126;20.664;2023-02-18T23:38:55;99817.00;;;2.51;94.04
55759;BME280;41678;52.126;20.664;2023-02-18T23:44:17;99816.16;;;2.54;94.42
55759;BME280;41678;52.126;20.664;2023-02-18T23:49:37;99811.00;;;2.57;94.07
55759;BME280;41678;52.126;20.664;2023-02-18T23:54:56;99802.38;;;2.58;94.54
